Time;durP1;ratioP1;P1;durP2;ratioP2;P2;SDS_P1;SDS_P2;PMS_P1;PMS_P2;Temp;Humidity;BMP_temperature;BMP_pressure;BME280_temperature;BME280_humidity;BME280_pressure;Samples;Min_cycle;Max_cycle;Signal;HPM_P1;HPM_P2
2024/03/04 00:02:41;;;;;;;14.50;6.10;;;;;;;;;;6173384;23;20168;-89
2024/03/04 00:05:46;;;;;;;13.70;5.70;;;;;;;;;;6173641;23;20167;-90
2024/03/04 00:08:53;;;;;;;15.60;6.13;;;;;;;;;;6174398;23;20300;-89
2024/03/04 00:12:00;;;;;;;12.73;6.07;;;;;;;;;;6174541;23;20218;-90
2024/03/04 00:15:05;;;;;;;13.07;5.63;;;;;;;;;;6174942;23;20168;-90
2024/03/04 00:18:10;;;;;;;13.83;6.37;;;;;;;;;;6173496;23;20172;-89
2024/03/04 00:21:16;;;;;;;11.00;5.40;;;;;;;;;;6174414;23;20160;-89
2024/03/04 00:24:22;;;;;;;11.50;5.63;;;;;;;;;;6174331;23;20164;-90
2024/03/04 00:27:28;;;;;;;12.07;5.47;;;;;;;;;;6173734;23;20311;-89
2024/03/04 00:30:33;;;;;;;13.70;6.10;;;;;;;;;;6175305;23;20175;-89
2024/03/04 00:33:38;;;;;;;13.43;6.03;;;;;;;;;;6174924;23;20208;-90
2024/03/04 00:36:44;;;;;;;13.00;5.93;;;;;;;;;;6175068;23;20231;-89
2024/03/04 00:39:49;;;;;;;13.37;5.67;;;;;;;;;;6175616;23;20168;-89
2024/03/04 00:43:00;;;;;;;12.10;5.47;;;;;;;;;;6176880;23;20168;-90
2024/03/04 00:46:05;;;;;;;11.80;5.63;;;;;;;;;;6175136;23;20163;-89
2024/03/04 00:49:10;;;;;;;10.17;5.63;;;;;;;;;;6176850;23;20168;-89
2024/03/04 00:52:17;;;;;;;13.00;6.00;;;;;;;;;;6174436;23;20175;-89
2024/03/04 00:55:22;;;;;;;12.77;5.37;;;;;;;;;;6194683;23;20230;-91
2024/03/04 00:58:28;;;;;;;13.67;5.80;;;;;;;;;;6176833;23;20191;-89
2024/03/04 01:01:34;;;;;;;10.43;5.57;;;;;;;;;;6174296;23;20175;-89
2024/03/04 01:04:39;;;;;;;15.33;6.13;;;;;;;;;;6176379;23;20167;-89
2024/03/04 01:07:44;;;;;;;13.30;6.27;;;;;;;;;;6177334;23;20215;-89
2024/03/04 01:10:49;;;;;;;16.40;5.50;;;;;;;;;;6175831;23;20711;-89
2024/03/04 01:13:55;;;;;;;10.73;4.97;;;;;;;;;;6175146;23;20168;-89
2024/03/04 01:17:01;;;;;;;12.27;5.93;;;;;;;;;;6174513;23;20282;-89
2024/03/04 01:20:13;;;;;;;11.93;6.23;;;;;;;;;;6175796;23;20171;-89
2024/03/04 01:23:18;;;;;;;11.57;5.63;;;;;;;;;;6177455;23;20176;-89
2024/03/04 01:26:23;;;;;;;13.80;6.43;;;;;;;;;;6176195;23;20592;-90
2024/03/04 01:29:30;;;;;;;14.60;6.20;;;;;;;;;;6175732;23;20211;-89
2024/03/04 01:32:36;;;;;;;13.17;5.80;;;;;;;;;;6174437;23;20184;-89
2024/03/04 01:35:41;;;;;;;13.10;6.23;;;;;;;;;;6175059;23;20171;-89
2024/03/04 01:38:47;;;;;;;14.40;6.20;;;;;;;;;;6175883;23;20172;-89
2024/03/04 01:41:51;;;;;;;13.30;5.77;;;;;;;;;;6175886;23;20167;-89
2024/03/04 01:44:57;;;;;;;13.33;6.10;;;;;;;;;;6175198;23;20591;-89
2024/03/04 01:48:04;;;;;;;15.10;5.53;;;;;;;;;;6176175;23;20231;-90
2024/03/04 01:51:10;;;;;;;13.57;6.30;;;;;;;;;;6174739;23;20163;-90
2024/03/04 01:54:15;;;;;;;14.97;6.50;;;;;;;;;;6176398;23;20179;-88
2024/03/04 01:57:20;;;;;;;16.53;6.33;;;;;;;;;;6175939;23;20251;-89
2024/03/04 02:00:27;;;;;;;19.80;7.10;;;;;;;;;;6173958;23;20176;-88
2024/03/04 02:03:35;;;;;;;14.47;6.37;;;;;;;;;;6176563;23;20620;-90
2024/03/04 02:06:41;;;;;;;13.37;6.63;;;;;;;;;;6175442;23;20172;-89
2024/03/04 02:09:47;;;;;;;13.47;6.27;;;;;;;;;;6177165;23;20251;-90
2024/03/04 02:12:52;;;;;;;13.27;6.27;;;;;;;;;;6175674;23;20171;-89
2024/03/04 02:15:58;;;;;;;14.70;5.90;;;;;;;;;;6194172;23;20151;-89
2024/03/04 02:19:03;;;;;;;14.33;5.93;;;;;;;;;;6175105;23;20187;-89
2024/03/04 02:22:10;;;;;;;11.90;5.40;;;;;;;;;;6176165;23;20541;-89
2024/03/04 02:25:19;;;;;;;11.37;5.73;;;;;;;;;;6176628;23;20287;-90
2024/03/04 02:28:26;;;;;;;13.10;5.43;;;;;;;;;;6175102;23;20191;-89
2024/03/04 02:31:33;;;;;;;11.40;5.33;;;;;;;;;;6174461;23;20163;-89
2024/03/04 02:34:39;;;;;;;11.63;5.40;;;;;;;;;;6176300;23;20168;-90
2024/03/04 02:37:44;;;;;;;14.93;5.37;;;;;;;;;;6175442;23;20176;-88
2024/03/04 02:40:51;;;;;;;12.43;5.43;;;;;;;;;;6174571;23;20235;-89
2024/03/04 02:43:56;;;;;;;12.43;5.50;;;;;;;;;;6177748;23;20530;-90
2024/03/04 02:47:02;;;;;;;16.93;6.43;;;;;;;;;;6177165;23;20288;-89
2024/03/04 02:50:07;;;;;;;18.13;6.20;;;;;;;;;;6177572;23;20164;-90
2024/03/04 02:53:13;;;;;;;12.03;5.30;;;;;;;;;;6178685;23;20602;-90
2024/03/04 02:56:20;;;;;;;10.30;5.00;;;;;;;;;;6179385;23;20163;-89
2024/03/04 02:59:25;;;;;;;16.50;5.40;;;;;;;;;;6177519;23;20155;-88
2024/03/04 03:02:30;;;;;;;11.30;5.57;;;;;;;;;;6180048;23;20200;-88
2024/03/04 03:05:35;;;;;;;14.13;5.47;;;;;;;;;;6180766;23;20167;-91
2024/03/04 03:08:43;;;;;;;11.77;5.27;;;;;;;;;;6178593;23;20190;-88
2024/03/04 03:11:50;;;;;;;10.93;5.73;;;;;;;;;;6176452;23;20299;-89
2024/03/04 03:14:55;;;;;;;11.30;5.57;;;;;;;;;;6177881;23;20171;-89
2024/03/04 03:18:06;;;;;;;12.27;5.67;;;;;;;;;;6178900;23;20494;-88
2024/03/04 03:21:12;;;;;;;13.77;5.93;;;;;;;;;;6180456;23;20247;-90
2024/03/04 03:24:18;;;;;;;15.23;6.27;;;;;;;;;;6178460;23;20682;-88
2024/03/04 03:27:24;;;;;;;13.00;5.73;;;;;;;;;;6175172;23;20199;-89
2024/03/04 03:30:29;;;;;;;17.57;7.07;;;;;;;;;;6176506;23;20180;-90
2024/03/04 03:33:34;;;;;;;13.93;6.30;;;;;;;;;;6176009;23;20191;-88
2024/03/04 03:36:41;;;;;;;16.20;6.53;;;;;;;;;;6176066;23;20208;-89
2024/03/04 03:39:47;;;;;;;14.60;6.50;;;;;;;;;;6175440;23;20243;-89
2024/03/04 03:42:55;;;;;;;13.17;5.90;;;;;;;;;;6174230;23;20172;-89
2024/03/04 03:46:01;;;;;;;13.90;6.43;;;;;;;;;;6173667;23;20630;-89
2024/03/04 03:49:05;;;;;;;15.00;6.70;;;;;;;;;;6172932;23;20203;-90
2024/03/04 03:52:11;;;;;;;11.77;5.40;;;;;;;;;;6173938;23;20179;-89
2024/03/04 03:55:16;;;;;;;14.27;5.67;;;;;;;;;;6172273;23;20168;-90
2024/03/04 03:58:22;;;;;;;11.20;5.37;;;;;;;;;;6173878;23;20152;-90
2024/03/04 04:01:27;;;;;;;16.37;5.47;;;;;;;;;;6172167;23;20163;-89
2024/03/04 04:04:32;;;;;;;12.67;5.40;;;;;;;;;;6174221;23;20163;-89
2024/03/04 04:07:37;;;;;;;12.03;5.37;;;;;;;;;;6175013;23;20658;-89
2024/03/04 04:10:42;;;;;;;11.47;5.10;;;;;;;;;;6173440;23;20184;-89
2024/03/04 04:13:48;;;;;;;11.10;5.30;;;;;;;;;;6175587;23;20179;-90
2024/03/04 04:16:53;;;;;;;11.90;5.17;;;;;;;;;;6176007;23;20176;-90
2024/03/04 04:19:59;;;;;;;13.77;6.20;;;;;;;;;;6193452;23;20172;-88
2024/03/04 04:23:04;;;;;;;14.00;6.07;;;;;;;;;;6175942;23;20212;-88
2024/03/04 04:26:09;;;;;;;14.70;5.70;;;;;;;;;;6194564;23;20171;-89
2024/03/04 04:29:16;;;;;;;12.80;5.63;;;;;;;;;;6175938;23;20196;-89
2024/03/04 04:32:21;;;;;;;11.73;5.10;;;;;;;;;;6176028;23;20296;-89
2024/03/04 04:35:26;;;;;;;14.30;5.53;;;;;;;;;;6175427;23;20243;-88
2024/03/04 04:38:31;;;;;;;11.60;5.50;;;;;;;;;;6174289;23;20171;-88
2024/03/04 04:41:36;;;;;;;12.60;5.80;;;;;;;;;;6173780;23;20148;-88
2024/03/04 04:44:43;;;;;;;17.87;6.37;;;;;;;;;;6174222;23;20164;-88
2024/03/04 04:47:48;;;;;;;15.77;6.30;;;;;;;;;;6174368;23;20195;-88
2024/03/04 04:50:53;;;;;;;15.93;6.53;;;;;;;;;;6175108;23;20167;-88
2024/03/04 04:53:58;;;;;;;13.10;6.07;;;;;;;;;;6172854;23;20179;-88
2024/03/04 04:57:03;;;;;;;13.90;5.93;;;;;;;;;;6174658;23;20278;-88
2024/03/04 05:00:12;;;;;;;17.10;5.77;;;;;;;;;;6175199;23;20557;-88
2024/03/04 05:03:18;;;;;;;13.37;6.10;;;;;;;;;;6174642;23;20183;-88
2024/03/04 05:06:23;;;;;;;12.80;5.40;;;;;;;;;;6173898;23;20168;-88
2024/03/04 05:09:28;;;;;;;24.10;6.40;;;;;;;;;;6175694;23;20195;-89
2024/03/04 05:12:34;;;;;;;20.53;6.87;;;;;;;;;;6176534;23;20172;-89
2024/03/04 05:15:40;;;;;;;12.73;6.00;;;;;;;;;;6176577;23;20168;-88
2024/03/04 05:18:45;;;;;;;15.63;5.93;;;;;;;;;;6176856;23;20172;-89
2024/03/04 05:21:50;;;;;;;14.63;5.60;;;;;;;;;;6179258;23;20218;-88
2024/03/04 05:24:56;;;;;;;12.90;5.53;;;;;;;;;;6176060;23;20172;-89
2024/03/04 05:28:01;;;;;;;12.63;5.37;;;;;;;;;;6175398;23;20180;-89
2024/03/04 05:31:07;;;;;;;14.87;5.77;;;;;;;;;;6176439;23;20176;-89
2024/03/04 05:34:12;;;;;;;21.73;5.90;;;;;;;;;;6179937;23;20191;-89
2024/03/04 05:37:18;;;;;;;15.13;6.70;;;;;;;;;;6178699;23;20210;-89
2024/03/04 05:40:23;;;;;;;17.83;5.70;;;;;;;;;;6180028;23;20151;-89
2024/03/04 05:43:28;;;;;;;25.03;6.40;;;;;;;;;;6175864;23;20172;-90
2024/03/04 05:46:34;;;;;;;18.47;6.27;;;;;;;;;;6176798;23;20246;-89
2024/03/04 05:49:39;;;;;;;14.97;6.03;;;;;;;;;;6176787;23;20196;-89
2024/03/04 05:52:45;;;;;;;18.27;6.37;;;;;;;;;;6175041;23;20172;-89
2024/03/04 05:55:51;;;;;;;13.40;6.00;;;;;;;;;;6175223;23;20164;-89
2024/03/04 05:58:56;;;;;;;10.83;4.93;;;;;;;;;;6175836;23;20175;-89
2024/03/04 06:02:03;;;;;;;14.70;4.87;;;;;;;;;;6176880;23;20168;-90
2024/03/04 06:05:08;;;;;;;10.73;5.13;;;;;;;;;;6178064;23;20167;-90
2024/03/04 06:08:18;;;;;;;9.53;5.00;;;;;;;;;;6176351;23;20195;-90
2024/03/04 06:11:22;;;;;;;11.07;5.20;;;;;;;;;;6175708;23;20961;-91
2024/03/04 06:14:28;;;;;;;16.03;5.57;;;;;;;;;;6176697;23;20168;-89
2024/03/04 06:17:34;;;;;;;11.67;5.97;;;;;;;;;;6179963;23;20250;-91
2024/03/04 06:20:39;;;;;;;21.10;6.17;;;;;;;;;;6181087;23;20168;-89
2024/03/04 06:23:44;;;;;;;13.03;5.93;;;;;;;;;;6177930;23;20159;-89
2024/03/04 06:26:49;;;;;;;12.73;6.80;;;;;;;;;;6177829;23;20628;-89
2024/03/04 06:29:54;;;;;;;14.90;6.20;;;;;;;;;;6178893;23;20267;-88
2024/03/04 06:33:01;;;;;;;14.53;6.10;;;;;;;;;;6175149;23;20191;-89
2024/03/04 06:36:06;;;;;;;15.93;6.53;;;;;;;;;;6178627;23;20168;-91
2024/03/04 06:39:11;;;;;;;14.83;6.13;;;;;;;;;;6178723;23;20151;-90
2024/03/04 06:42:16;;;;;;;17.37;7.13;;;;;;;;;;6177338;23;20172;-91
2024/03/04 06:45:21;;;;;;;12.77;5.60;;;;;;;;;;6179411;23;20170;-91
2024/03/04 06:48:28;;;;;;;15.70;5.90;;;;;;;;;;6179008;23;20204;-90
2024/03/04 06:51:36;;;;;;;12.20;5.90;;;;;;;;;;6180566;23;20164;-89
2024/03/04 06:54:41;;;;;;;15.17;6.60;;;;;;;;;;6178696;23;20168;-90
2024/03/04 06:57:46;;;;;;;14.83;6.20;;;;;;;;;;6177210;23;20175;-90
2024/03/04 07:00:55;;;;;;;13.90;6.20;;;;;;;;;;6178624;23;20168;-89
2024/03/04 07:04:02;;;;;;;16.90;5.83;;;;;;;;;;6176673;23;20167;-90
2024/03/04 07:07:08;;;;;;;20.23;7.97;;;;;;;;;;6195862;23;20157;-89
2024/03/04 07:10:13;;;;;;;16.30;5.90;;;;;;;;;;6180185;23;20242;-89
2024/03/04 07:13:18;;;;;;;16.63;6.20;;;;;;;;;;6180524;23;20266;-90
2024/03/04 07:16:26;;;;;;;15.20;6.30;;;;;;;;;;6177704;23;20168;-89
2024/03/04 07:19:33;;;;;;;19.63;6.10;;;;;;;;;;6176911;23;20171;-90
2024/03/04 07:22:38;;;;;;;13.90;5.70;;;;;;;;;;6175711;23;20178;-91
2024/03/04 07:25:43;;;;;;;17.53;6.03;;;;;;;;;;6177676;23;20172;-89
2024/03/04 07:28:48;;;;;;;23.73;6.40;;;;;;;;;;6181681;23;20207;-90
2024/03/04 07:31:54;;;;;;;20.13;6.43;;;;;;;;;;6177782;23;20168;-89
2024/03/04 07:35:01;;;;;;;30.37;7.07;;;;;;;;;;6180168;23;20651;-89
2024/03/04 07:38:06;;;;;;;16.87;6.67;;;;;;;;;;6179077;23;20168;-90
2024/03/04 07:41:11;;;;;;;39.60;7.90;;;;;;;;;;6177894;23;20179;-89
2024/03/04 07:44:17;;;;;;;32.53;6.97;;;;;;;;;;6176131;23;20626;-88
2024/03/04 07:47:23;;;;;;;24.50;6.73;;;;;;;;;;6175213;23;20233;-88
2024/03/04 07:50:29;;;;;;;15.43;6.73;;;;;;;;;;6177561;23;20183;-89
2024/03/04 07:53:35;;;;;;;14.97;6.70;;;;;;;;;;6176751;23;20163;-89
2024/03/04 07:56:40;;;;;;;13.93;6.67;;;;;;;;;;6176921;23;20698;-90
2024/03/04 07:59:45;;;;;;;12.87;6.00;;;;;;;;;;6177166;23;20175;-90
2024/03/04 08:02:51;;;;;;;13.83;5.83;;;;;;;;;;6176321;23;20207;-89
2024/03/04 08:05:57;;;;;;;16.17;7.90;;;;;;;;;;6178574;23;20152;-89
2024/03/04 08:09:04;;;;;;;16.53;6.40;;;;;;;;;;6178445;23;20240;-91
2024/03/04 08:12:09;;;;;;;17.83;7.32;;;;;;;;;;6179362;23;20164;-91
2024/03/04 08:15:14;;;;;;;31.88;9.98;;;;;;;;;;6179791;23;20164;-89
2024/03/04 08:18:20;;;;;;;15.32;5.82;;;;;;;;;;6177475;23;20695;-87
2024/03/04 08:21:28;;;;;;;11.23;5.70;;;;;;;;;;6178588;23;20288;-88
2024/03/04 08:24:33;;;;;;;16.20;6.60;;;;;;;;;;6182453;23;20176;-90
2024/03/04 08:27:39;;;;;;;16.67;7.40;;;;;;;;;;6180520;23;20235;-89
2024/03/04 08:30:44;;;;;;;13.38;6.35;;;;;;;;;;6179332;23;20191;-89
2024/03/04 08:33:51;;;;;;;17.55;6.82;;;;;;;;;;6177685;23;20258;-89
2024/03/04 08:36:57;;;;;;;15.82;6.35;;;;;;;;;;6177398;23;20280;-88
2024/03/04 08:40:04;;;;;;;17.33;6.68;;;;;;;;;;6178434;23;20214;-89
2024/03/04 08:43:10;;;;;;;12.75;6.82;;;;;;;;;;6177877;23;20604;-90
2024/03/04 08:46:15;;;;;;;14.43;6.88;;;;;;;;;;6177642;23;20164;-90
2024/03/04 08:49:20;;;;;;;13.57;6.35;;;;;;;;;;6195461;23;20256;-89
2024/03/04 08:52:30;;;;;;;20.50;8.93;;;;;;;;;;6179698;23;20167;-88
2024/03/04 08:55:35;;;;;;;16.00;7.78;;;;;;;;;;6180527;23;20163;-89
2024/03/04 08:58:41;;;;;;;15.18;7.00;;;;;;;;;;6179913;23;20168;-90
2024/03/04 09:01:47;;;;;;;13.05;6.88;;;;;;;;;;6180291;23;20257;-89
2024/03/04 09:04:52;;;;;;;20.00;7.22;;;;;;;;;;6180724;23;20179;-89
2024/03/04 09:08:03;;;;;;;14.20;5.93;;;;;;;;;;6178787;23;20167;-90
2024/03/04 09:11:09;;;;;;;13.38;5.80;;;;;;;;;;6179752;23;20188;-90
2024/03/04 09:14:14;;;;;;;26.00;7.75;;;;;;;;;;6177996;23;20227;-91
2024/03/04 09:17:20;;;;;;;22.52;6.60;;;;;;;;;;6178339;23;20151;-90
2024/03/04 09:20:26;;;;;;;16.45;6.03;;;;;;;;;;6178636;23;20188;-90
2024/03/04 09:23:32;;;;;;;11.60;5.40;;;;;;;;;;6197498;23;20611;-90
2024/03/04 09:26:38;;;;;;;12.85;5.55;;;;;;;;;;6178006;23;20160;-91
2024/03/04 09:29:43;;;;;;;11.95;5.88;;;;;;;;;;6177861;23;20192;-90
2024/03/04 09:32:48;;;;;;;11.80;5.00;;;;;;;;;;6177794;23;20239;-90
2024/03/04 09:35:53;;;;;;;11.50;5.50;;;;;;;;;;6180391;23;20172;-90
2024/03/04 09:38:59;;;;;;;11.60;4.88;;;;;;;;;;6179428;23;20167;-92
2024/03/04 09:42:04;;;;;;;13.82;5.78;;;;;;;;;;6178883;23;20278;-91
2024/03/04 09:45:11;;;;;;;12.13;5.70;;;;;;;;;;6177427;23;20646;-90
2024/03/04 09:48:17;;;;;;;12.00;5.30;;;;;;;;;;6179663;23;20167;-91
2024/03/04 09:51:24;;;;;;;12.20;4.78;;;;;;;;;;6178664;23;20167;-91
2024/03/04 09:54:32;;;;;;;13.07;5.60;;;;;;;;;;6177933;23;20280;-91
2024/03/04 09:57:38;;;;;;;21.23;6.22;;;;;;;;;;6177880;23;20172;-88
2024/03/04 10:00:44;;;;;;;10.27;5.07;;;;;;;;;;6179063;23;20155;-90
2024/03/04 10:03:49;;;;;;;12.48;5.22;;;;;;;;;;6179024;23;20168;-89
2024/03/04 10:06:55;;;;;;;20.02;6.72;;;;;;;;;;6180932;23;20250;-89
2024/03/04 10:10:12;;;;;;;10.93;5.32;;;;;;;;;;6179373;23;20238;-90
2024/03/04 10:13:18;;;;;;;9.55;4.68;;;;;;;;;;6181247;23;20176;-90
2024/03/04 10:16:23;;;;;;;13.13;4.75;;;;;;;;;;6177019;23;20690;-89
2024/03/04 10:19:28;;;;;;;10.27;5.10;;;;;;;;;;6179733;23;20258;-90
2024/03/04 10:22:34;;;;;;;14.52;4.97;;;;;;;;;;6178266;23;20256;-89
2024/03/04 10:25:40;;;;;;;16.65;5.40;;;;;;;;;;6178363;23;20167;-89
2024/03/04 10:28:46;;;;;;;9.15;4.55;;;;;;;;;;6177270;23;20172;-89
2024/03/04 10:31:52;;;;;;;16.33;5.57;;;;;;;;;;6178999;23;20171;-90
2024/03/04 10:35:04;;;;;;;11.65;5.68;;;;;;;;;;6180096;23;20256;-90
2024/03/04 10:38:09;;;;;;;12.40;5.85;;;;;;;;;;6179618;23;20176;-90
2024/03/04 10:41:20;;;;;;;8.70;4.80;;;;;;;;;;6179233;23;20163;-89
2024/03/04 10:44:25;;;;;;;10.88;5.18;;;;;;;;;;6178108;23;20238;-90
2024/03/04 10:47:30;;;;;;;15.20;5.65;;;;;;;;;;6176187;23;20623;-90
2024/03/04 10:50:35;;;;;;;14.18;5.70;;;;;;;;;;6177454;23;20191;-90
2024/03/04 10:53:44;;;;;;;12.93;5.45;;;;;;;;;;6176163;23;20280;-90
2024/03/04 10:56:57;;;;;;;11.20;5.50;;;;;;;;;;6174254;23;20176;-90
2024/03/04 11:00:10;;;;;;;11.93;5.60;;;;;;;;;;6178669;23;20620;-91
2024/03/04 11:03:16;;;;;;;16.85;6.40;;;;;;;;;;6179414;23;20255;-91
2024/03/04 11:06:22;;;;;;;14.65;6.57;;;;;;;;;;6177644;23;20171;-90
2024/03/04 11:09:27;;;;;;;12.95;6.50;;;;;;;;;;6176055;23;20168;-89
2024/03/04 11:12:34;;;;;;;18.33;6.68;;;;;;;;;;6179412;23;20287;-89
2024/03/04 11:15:43;;;;;;;18.38;7.53;;;;;;;;;;6176658;23;20624;-90
2024/03/04 11:18:55;;;;;;;15.50;6.65;;;;;;;;;;6177127;23;20290;-90
2024/03/04 11:22:02;;;;;;;12.90;7.30;;;;;;;;;;6177015;23;20487;-89
2024/03/04 11:25:07;;;;;;;17.20;7.38;;;;;;;;;;6175939;23;20156;-90
2024/03/04 11:28:18;;;;;;;12.80;7.32;;;;;;;;;;6176505;23;20243;-89
2024/03/04 11:31:25;;;;;;;13.63;7.25;;;;;;;;;;6177933;23;20200;-90
2024/03/04 11:34:30;;;;;;;17.48;8.20;;;;;;;;;;6179464;23;20203;-89
2024/03/04 11:37:50;;;;;;;13.50;7.97;;;;;;;;;;6181416;23;20172;-89
2024/03/04 11:40:58;;;;;;;15.65;8.07;;;;;;;;;;6177387;23;20167;-90
2024/03/04 11:44:04;;;;;;;18.85;9.65;;;;;;;;;;6176482;23;20179;-90
2024/03/04 11:47:11;;;;;;;18.83;9.43;;;;;;;;;;6178388;23;20215;-89
2024/03/04 11:50:36;;;;;;;18.88;10.02;;;;;;;;;;6175934;23;20195;-90
2024/03/04 11:53:44;;;;;;;20.42;10.30;;;;;;;;;;6179235;23;20619;-90
2024/03/04 11:56:49;;;;;;;18.10;10.98;;;;;;;;;;6177345;23;20550;-89
2024/03/04 12:00:00;;;;;;;20.73;10.30;;;;;;;;;;6179048;23;20183;-90
2024/03/04 12:03:05;;;;;;;20.23;11.20;;;;;;;;;;6197323;23;20171;-91
2024/03/04 12:06:16;;;;;;;21.27;11.15;;;;;;;;;;6181715;23;20164;-91
2024/03/04 12:09:23;;;;;;;20.60;11.30;;;;;;;;;;6198045;23;20172;-90
2024/03/04 12:12:28;;;;;;;19.13;10.23;;;;;;;;;;6179564;23;20168;-90
2024/03/04 12:15:35;;;;;;;22.25;11.50;;;;;;;;;;6196655;23;20242;-90
2024/03/04 12:18:40;;;;;;;20.08;10.82;;;;;;;;;;6196159;23;20164;-90
2024/03/04 12:21:45;;;;;;;18.70;11.15;;;;;;;;;;6195948;23;20172;-90
2024/03/04 12:25:00;;;;;;;23.23;12.90;;;;;;;;;;6180544;23;20503;-90
2024/03/04 12:28:06;;;;;;;21.85;13.07;;;;;;;;;;6196839;23;20164;-90
2024/03/04 12:31:13;;;;;;;24.73;13.52;;;;;;;;;;6197224;23;20204;-91
2024/03/04 12:34:20;;;;;;;21.30;12.40;;;;;;;;;;6199718;23;20290;-89
2024/03/04 12:37:25;;;;;;;22.70;13.00;;;;;;;;;;6198422;23;20282;-89
2024/03/04 12:40:30;;;;;;;25.65;14.02;;;;;;;;;;6180779;23;20168;-88
2024/03/04 12:43:35;;;;;;;25.05;13.35;;;;;;;;;;6179431;23;20168;-89
2024/03/04 12:46:42;;;;;;;23.63;14.32;;;;;;;;;;6179823;23;20191;-89
2024/03/04 12:49:47;;;;;;;31.92;14.40;;;;;;;;;;6180930;23;20168;-91
2024/03/04 12:52:53;;;;;;;32.03;15.13;;;;;;;;;;6181156;23;20256;-90
2024/03/04 12:55:58;;;;;;;33.72;15.77;;;;;;;;;;6178291;23;20168;-89
2024/03/04 12:59:03;;;;;;;28.45;15.20;;;;;;;;;;6197793;23;20163;-89
2024/03/04 13:02:09;;;;;;;28.65;15.13;;;;;;;;;;6183570;23;20159;-90
2024/03/04 13:05:15;;;;;;;28.80;15.93;;;;;;;;;;6181071;23;20164;-91
2024/03/04 13:08:21;;;;;;;26.20;14.57;;;;;;;;;;6181589;23;20239;-89
2024/03/04 13:11:28;;;;;;;25.80;15.32;;;;;;;;;;6185143;23;20258;-90
2024/03/04 13:14:35;;;;;;;26.10;14.88;;;;;;;;;;6200197;23;20620;-90
2024/03/04 13:17:43;;;;;;;29.08;15.18;;;;;;;;;;6182269;23;20176;-90
2024/03/04 13:20:49;;;;;;;29.63;15.60;;;;;;;;;;6180245;23;20172;-89
2024/03/04 13:23:58;;;;;;;29.85;15.27;;;;;;;;;;6198006;23;20171;-89
2024/03/04 13:27:04;;;;;;;30.92;15.45;;;;;;;;;;6181986;23;20172;-92
2024/03/04 13:30:10;;;;;;;33.05;16.55;;;;;;;;;;6197508;23;20191;-90
2024/03/04 13:33:17;;;;;;;35.67;16.05;;;;;;;;;;6198372;23;20195;-90
2024/03/04 13:36:22;;;;;;;28.63;15.20;;;;;;;;;;6198513;23;20151;-89
2024/03/04 13:39:27;;;;;;;26.95;15.07;;;;;;;;;;6180695;23;20164;-90
2024/03/04 13:42:32;;;;;;;29.45;14.52;;;;;;;;;;6179530;23;20163;-90
2024/03/04 13:45:37;;;;;;;30.33;15.10;;;;;;;;;;6199075;23;20156;-88
2024/03/04 13:48:44;;;;;;;29.33;14.65;;;;;;;;;;6179577;23;20662;-89
2024/03/04 13:51:49;;;;;;;27.05;14.30;;;;;;;;;;6197697;23;20188;-88
2024/03/04 13:54:54;;;;;;;39.25;15.23;;;;;;;;;;6198230;23;20167;-89
2024/03/04 13:58:01;;;;;;;29.58;15.43;;;;;;;;;;6171472;23;20184;-89
2024/03/04 14:01:06;;;;;;;30.90;14.82;;;;;;;;;;6180434;23;20167;-88
2024/03/04 14:04:12;;;;;;;31.77;15.05;;;;;;;;;;6197276;23;20184;-89
2024/03/04 14:07:17;;;;;;;25.17;13.35;;;;;;;;;;6180792;23;20168;-89
2024/03/04 14:10:23;;;;;;;26.63;14.30;;;;;;;;;;6178182;23;20299;-89
2024/03/04 14:13:28;;;;;;;25.13;13.27;;;;;;;;;;6178229;23;20496;-89
2024/03/04 14:16:33;;;;;;;38.13;15.25;;;;;;;;;;6178052;23;20168;-88
2024/03/04 14:19:40;;;;;;;31.10;14.07;;;;;;;;;;6177771;23;20295;-89
2024/03/04 14:22:45;;;;;;;31.13;14.38;;;;;;;;;;6193642;23;20498;-89
2024/03/04 14:25:50;;;;;;;30.17;13.00;;;;;;;;;;6194832;23;20176;-89
2024/03/04 14:28:55;;;;;;;35.80;13.98;;;;;;;;;;6179009;23;20160;-89
2024/03/04 14:32:00;;;;;;;27.40;13.68;;;;;;;;;;6180023;23;20199;-89
2024/03/04 14:35:07;;;;;;;29.40;12.82;;;;;;;;;;6182703;23;20279;-89
2024/03/04 14:38:15;;;;;;;29.42;13.55;;;;;;;;;;6196169;23;20203;-90
2024/03/04 14:41:20;;;;;;;30.90;13.77;;;;;;;;;;6177326;23;20179;-90
2024/03/04 14:44:25;;;;;;;30.83;14.43;;;;;;;;;;6193747;23;20179;-89
2024/03/04 14:47:32;;;;;;;31.20;13.85;;;;;;;;;;6177601;23;20171;-88
2024/03/04 14:50:39;;;;;;;29.08;13.95;;;;;;;;;;6177913;23;20311;-89
2024/03/04 14:53:46;;;;;;;29.42;14.40;;;;;;;;;;6196703;23;20623;-89
2024/03/04 14:56:52;;;;;;;33.65;14.63;;;;;;;;;;6195543;23;20168;-88
2024/03/04 14:59:57;;;;;;;29.65;14.15;;;;;;;;;;6196303;23;20242;-89
2024/03/04 15:03:02;;;;;;;33.20;13.98;;;;;;;;;;6196367;23;20167;-89
2024/03/04 15:06:09;;;;;;;29.73;13.68;;;;;;;;;;6195591;23;20307;-89
2024/03/04 15:09:14;;;;;;;32.97;14.50;;;;;;;;;;6177874;23;20229;-90
2024/03/04 15:12:20;;;;;;;36.70;14.38;;;;;;;;;;6178728;23;20191;-90
2024/03/04 15:15:26;;;;;;;32.88;14.68;;;;;;;;;;6196378;23;20164;-87
2024/03/04 15:18:35;;;;;;;31.60;14.52;;;;;;;;;;6178579;23;20582;-87
2024/03/04 15:21:42;;;;;;;33.03;14.75;;;;;;;;;;6196237;23;20175;-88
2024/03/04 15:24:47;;;;;;;37.20;13.90;;;;;;;;;;6195394;23;20168;-89
2024/03/04 15:27:52;;;;;;;38.03;14.25;;;;;;;;;;6179033;23;20172;-87
2024/03/04 15:30:58;;;;;;;27.98;14.15;;;;;;;;;;6197652;23;20208;-88
2024/03/04 15:34:05;;;;;;;34.92;14.80;;;;;;;;;;6195488;23;20244;-89
2024/03/04 15:37:14;;;;;;;34.45;13.90;;;;;;;;;;6196945;23;20172;-88
2024/03/04 15:40:19;;;;;;;27.42;13.48;;;;;;;;;;6198539;23;20167;-89
2024/03/04 15:43:24;;;;;;;31.92;14.32;;;;;;;;;;6178269;23;20168;-87
2024/03/04 15:46:29;;;;;;;37.78;15.00;;;;;;;;;;6195434;23;20171;-88
2024/03/04 15:49:38;;;;;;;32.40;14.90;;;;;;;;;;6176820;23;20175;-88
2024/03/04 15:52:45;;;;;;;31.70;14.45;;;;;;;;;;6178052;23;20219;-89
2024/03/04 15:55:51;;;;;;;38.33;15.25;;;;;;;;;;6195939;23;20164;-88
2024/03/04 15:58:58;;;;;;;32.65;14.77;;;;;;;;;;6198712;23;20226;-88
2024/03/04 16:02:04;;;;;;;31.15;14.45;;;;;;;;;;6197181;23;20183;-88
2024/03/04 16:05:09;;;;;;;36.08;15.43;;;;;;;;;;6200779;23;20163;-88
2024/03/04 16:08:15;;;;;;;34.65;14.98;;;;;;;;;;6197322;23;20254;-89
2024/03/04 16:11:21;;;;;;;42.30;16.15;;;;;;;;;;6199923;23;20227;-88
2024/03/04 16:14:27;;;;;;;43.30;16.17;;;;;;;;;;6197572;23;20164;-88
2024/03/04 16:17:32;;;;;;;34.92;15.63;;;;;;;;;;6199595;23;20164;-87
2024/03/04 16:20:37;;;;;;;35.30;14.88;;;;;;;;;;6181288;23;20287;-88
2024/03/04 16:23:44;;;;;;;45.80;16.60;;;;;;;;;;6198448;23;20164;-89
2024/03/04 16:26:51;;;;;;;41.90;16.52;;;;;;;;;;6199930;23;20168;-88
2024/03/04 16:29:56;;;;;;;40.45;17.38;;;;;;;;;;6199888;23;20164;-89
2024/03/04 16:33:04;;;;;;;39.08;17.38;;;;;;;;;;6181651;23;20214;-89
2024/03/04 16:36:09;;;;;;;41.17;16.50;;;;;;;;;;6198895;23;20172;-88
2024/03/04 16:39:16;;;;;;;50.80;17.67;;;;;;;;;;6182350;23;20248;-88
2024/03/04 16:42:22;;;;;;;45.38;18.08;;;;;;;;;;6181069;23;20167;-90
2024/03/04 16:45:27;;;;;;;37.97;17.20;;;;;;;;;;6179935;23;20616;-88
2024/03/04 16:48:32;;;;;;;40.00;16.92;;;;;;;;;;6197380;23;20235;-88
2024/03/04 16:51:41;;;;;;;41.97;17.35;;;;;;;;;;6197526;23;20191;-89
2024/03/04 16:54:48;;;;;;;40.10;17.85;;;;;;;;;;6180924;23;20204;-89
2024/03/04 16:57:54;;;;;;;37.13;17.90;;;;;;;;;;6182840;23;20171;-88
2024/03/04 17:00:59;;;;;;;39.70;18.40;;;;;;;;;;6200673;23;20168;-89
2024/03/04 17:04:05;;;;;;;38.92;17.50;;;;;;;;;;6200403;23;20168;-89
2024/03/04 17:07:10;;;;;;;40.92;17.15;;;;;;;;;;6200681;23;20152;-89
2024/03/04 17:10:17;;;;;;;40.55;17.00;;;;;;;;;;6183570;23;20236;-89
2024/03/04 17:13:22;;;;;;;43.03;18.85;;;;;;;;;;6199839;23;20192;-90
2024/03/04 17:16:28;;;;;;;42.50;18.17;;;;;;;;;;6179661;23;20163;-89
2024/03/04 17:19:36;;;;;;;51.72;21.45;;;;;;;;;;6178521;23;20207;-87
2024/03/04 17:22:42;;;;;;;51.75;22.13;;;;;;;;;;6198282;23;20207;-90
2024/03/04 17:25:48;;;;;;;41.75;19.05;;;;;;;;;;6194879;23;20276;-88
2024/03/04 17:28:53;;;;;;;47.95;19.48;;;;;;;;;;6196120;23;20204;-88
2024/03/04 17:31:58;;;;;;;47.28;20.52;;;;;;;;;;6177175;23;20195;-89
2024/03/04 17:35:03;;;;;;;47.50;19.80;;;;;;;;;;6176522;23;20168;-87
2024/03/04 17:38:09;;;;;;;44.58;20.70;;;;;;;;;;6198879;23;20180;-89
2024/03/04 17:41:15;;;;;;;46.80;22.52;;;;;;;;;;6178989;23;20168;-88
2024/03/04 17:44:21;;;;;;;48.10;21.23;;;;;;;;;;6197618;23;20191;-88
2024/03/04 17:47:26;;;;;;;49.63;21.48;;;;;;;;;;6179806;23;20168;-87
2024/03/04 17:50:31;;;;;;;46.10;20.60;;;;;;;;;;6178637;23;20207;-88
2024/03/04 17:53:36;;;;;;;43.50;20.65;;;;;;;;;;6196895;23;20167;-87
2024/03/04 17:56:43;;;;;;;52.08;21.52;;;;;;;;;;6181058;23;20175;-89
2024/03/04 17:59:47;;;;;;;47.53;20.95;;;;;;;;;;6180457;23;20259;-88
2024/03/04 18:02:52;;;;;;;53.13;21.40;;;;;;;;;;6179759;23;20495;-89
2024/03/04 18:05:57;;;;;;;42.35;20.65;;;;;;;;;;6196502;23;20167;-87
2024/03/04 18:09:03;;;;;;;48.15;21.85;;;;;;;;;;6178648;23;20168;-88
2024/03/04 18:12:10;;;;;;;47.50;21.17;;;;;;;;;;6199886;23;20204;-89
2024/03/04 18:15:16;;;;;;;47.40;20.35;;;;;;;;;;6199792;23;20599;-89